Time;durP1;ratioP1;P1;durP2;ratioP2;P2;SDS_P1;SDS_P2;PMS_P1;PMS_P2;Temp;Humidity;BMP_temperature;BMP_pressure;BME280_temperature;BME280_humidity;BME280_pressure;Samples;Min_cycle;Max_cycle;Signal;HPM_P1;HPM_P2
2022/01/28 00:01:02;;;;;;;4.57;3.07;;;;;;;3.88;100.00;97304.38;5057190;28;20573;-68
2022/01/28 00:03:29;;;;;;;4.47;3.07;;;;;;;3.98;100.00;97315.78;5059279;28;20259;-68
2022/01/28 00:05:57;;;;;;;5.63;2.20;;;;;;;4.01;100.00;97315.59;5060124;28;20707;-68
2022/01/28 00:08:23;;;;;;;6.67;3.37;;;;;;;3.80;100.00;97314.50;5058852;28;20453;-68
2022/01/28 00:10:51;;;;;;;5.23;2.63;;;;;;;3.92;100.00;97311.03;5059616;28;20208;-68
2022/01/28 00:13:24;;;;;;;4.37;2.50;;;;;;;4.10;100.00;97314.06;5059310;28;20261;-68
2022/01/28 00:40:41;;;;;;;8.30;3.47;;;;;;;4.28;100.00;97324.00;5053156;28;20234;-69
2022/01/28 00:43:08;;;;;;;3.73;2.50;;;;;;;4.39;100.00;97334.47;5052227;28;20200;-70
2022/01/28 00:45:35;;;;;;;2.30;1.37;;;;;;;4.29;100.00;97325.66;5053486;28;20573;-69
2022/01/28 00:48:01;;;;;;;5.17;2.77;;;;;;;4.40;100.00;97333.53;5053090;28;20243;-69
2022/01/28 00:50:28;;;;;;;7.30;2.77;;;;;;;4.56;99.86;97334.88;5052936;28;20204;-69
2022/01/28 00:52:54;;;;;;;4.23;1.97;;;;;;;4.35;100.00;97335.63;5052512;28;20595;-69
2022/01/28 00:55:22;;;;;;;2.67;1.37;;;;;;;4.38;100.00;97336.25;5053523;28;20467;-68
2022/01/28 00:57:49;;;;;;;8.33;3.13;;;;;;;4.51;100.00;97329.16;5052413;28;20220;-70
2022/01/28 01:00:16;;;;;;;5.10;2.20;;;;;;;4.39;100.00;97342.28;5053189;28;20231;-68
2022/01/28 01:02:42;;;;;;;2.53;1.80;;;;;;;4.36;100.00;97337.31;5052294;28;20205;-69
2022/01/28 01:05:09;;;;;;;5.20;2.33;;;;;;;4.51;100.00;97351.84;5052928;28;20201;-69
2022/01/28 01:07:37;;;;;;;4.10;2.13;;;;;;;4.74;99.84;97343.13;5052698;28;20220;-68
2022/01/28 01:10:05;;;;;;;3.40;2.03;;;;;;;4.76;99.52;97336.84;5052515;28;20685;-69
2022/01/28 01:12:37;;;;;;;5.67;2.57;;;;;;;4.77;99.39;97340.28;5051659;28;20479;-68
2022/01/28 01:15:05;;;;;;;6.80;2.60;;;;;;;4.77;99.96;97340.28;5052194;28;20263;-70
2022/01/28 01:17:36;;;;;;;1.50;1.40;;;;;;;4.59;100.00;97341.66;5052107;28;20224;-69
2022/01/28 01:22:51;;;;;;;4.50;1.97;;;;;;;4.55;99.42;97343.66;5048805;28;20204;-70
2022/01/28 01:25:25;;;;;;;2.90;1.53;;;;;;;4.34;99.96;97349.63;5052754;28;20211;-69
2022/01/28 01:27:55;;;;;;;4.03;2.83;;;;;;;4.86;98.73;97349.09;5051952;28;20702;-69
2022/01/28 01:30:23;;;;;;;3.50;2.00;;;;;;;4.66;98.71;97350.69;5051879;28;20201;-69
2022/01/28 01:32:50;;;;;;;3.20;2.03;;;;;;;4.77;98.35;97351.53;5039080;28;20193;-68
2022/01/28 01:35:16;;;;;;;5.67;1.60;;;;;;;4.78;98.12;97353.22;5039693;28;20630;-70
2022/01/28 01:37:43;;;;;;;12.93;2.20;;;;;;;4.79;97.48;97354.06;5038829;28;20221;-69
2022/01/28 01:40:11;;;;;;;2.57;1.40;;;;;;;4.85;98.11;97350.03;5038196;28;20673;-70
2022/01/28 01:42:46;;;;;;;6.57;2.07;;;;;;;4.88;97.22;97352.41;5038891;28;20275;-68
2022/01/28 01:53:29;;;;;;;4.87;2.27;;;;;;;4.94;96.50;97351.94;5038333;28;20477;-68
2022/01/28 01:55:57;;;;;;;3.80;2.07;;;;;;;4.83;96.77;97356.31;5038476;28;20233;-69
2022/01/28 01:58:29;;;;;;;3.13;2.00;;;;;;;4.84;96.54;97356.19;5038362;28;20590;-70
2022/01/28 02:00:58;;;;;;;4.03;1.87;;;;;;;4.84;96.78;97361.41;5038363;28;20300;-70
2022/01/28 02:03:24;;;;;;;4.37;1.90;;;;;;;4.80;96.38;97358.31;5037862;28;20205;-69
2022/01/28 02:05:51;;;;;;;4.63;2.27;;;;;;;4.65;97.05;97356.88;5038851;28;20204;-68
2022/01/28 02:08:18;;;;;;;3.43;1.97;;;;;;;4.82;96.03;97368.56;5038153;28;21021;-69
2022/01/28 02:10:44;;;;;;;8.90;2.13;;;;;;;4.65;96.22;97369.94;5038449;28;20229;-69
2022/01/28 02:13:11;;;;;;;3.10;1.70;;;;;;;4.56;97.10;97365.38;5038247;28;20484;-70
2022/01/28 02:15:37;;;;;;;4.63;2.50;;;;;;;4.70;96.58;97375.59;5038336;28;20686;-69
2022/01/28 02:18:05;;;;;;;5.03;1.90;;;;;;;4.54;97.97;97368.09;5038234;28;20225;-69
2022/01/28 02:20:36;;;;;;;3.23;2.20;;;;;;;4.68;96.78;97377.53;5037890;28;20220;-68
2022/01/28 02:23:02;;;;;;;4.50;2.57;;;;;;;4.62;96.67;97385.78;5037853;28;20209;-68
2022/01/28 02:25:31;;;;;;;5.43;1.83;;;;;;;4.66;96.59;97376.78;5037789;28;20209;-70
2022/01/28 02:28:01;;;;;;;5.20;2.20;;;;;;;4.52;96.88;97377.81;5038156;28;21066;-69
2022/01/28 02:30:27;;;;;;;4.67;2.10;;;;;;;4.55;96.41;97385.41;5037795;28;20211;-69
2022/01/28 02:32:58;;;;;;;0.83;0.83;;;;;;;4.48;96.44;97389.44;5037318;28;20201;-69
2022/01/28 02:35:25;;;;;;;3.97;2.40;;;;;;;4.67;95.90;97394.13;5037855;28;20220;-69
2022/01/28 02:37:52;;;;;;;6.60;3.43;;;;;;;4.81;95.59;97393.94;5037812;28;20467;-69
2022/01/28 02:40:19;;;;;;;6.37;2.93;;;;;;;4.74;95.41;97396.16;5037186;28;20236;-69
2022/01/28 02:42:56;;;;;;;3.93;1.83;;;;;;;4.58;95.96;97395.66;5036267;28;20201;-69
2022/01/28 02:45:32;;;;;;;5.63;3.07;;;;;;;4.58;95.67;97400.88;5038505;28;20208;-69
2022/01/28 02:48:02;;;;;;;2.63;1.97;;;;;;;4.81;95.22;97396.53;5037659;28;20224;-69
2022/01/28 02:50:33;;;;;;;2.83;1.87;;;;;;;4.55;95.60;97395.84;5036831;28;20295;-70
2022/01/28 02:53:06;;;;;;;3.33;1.77;;;;;;;4.68;96.20;97390.56;5036618;28;20270;-68
2022/01/28 02:55:37;;;;;;;3.43;2.10;;;;;;;4.40;96.60;97396.16;5038326;28;20205;-69
2022/01/28 02:58:17;;;;;;;5.77;2.30;;;;;;;4.66;96.19;97395.06;5037799;28;20498;-70
2022/01/28 03:00:46;;;;;;;2.03;1.63;;;;;;;4.68;95.76;97401.00;5036832;28;20229;-70
2022/01/28 03:03:13;;;;;;;5.53;1.90;;;;;;;4.62;95.45;97402.31;5036778;28;20812;-69
2022/01/28 03:05:40;;;;;;;4.63;2.83;;;;;;;4.70;95.12;97406.94;5037538;28;20235;-68
2022/01/28 03:08:08;;;;;;;3.67;2.03;;;;;;;4.72;95.01;97410.28;5036609;28;20228;-68
2022/01/28 03:10:58;;;;;;;3.47;1.23;;;;;;;4.86;94.51;97410.91;5036584;28;20204;-68
2022/01/28 03:13:44;;;;;;;9.03;2.90;;;;;;;4.69;94.80;97405.28;5036048;28;20525;-68
2022/01/28 03:16:13;;;;;;;4.30;1.50;;;;;;;4.75;94.59;97412.66;5036550;28;20563;-68
2022/01/28 03:18:49;;;;;;;0.60;0.60;;;;;;;4.65;95.04;97420.34;5036917;28;20231;-68
2022/01/28 03:21:38;;;;;;;3.53;2.00;;;;;;;5.00;93.99;97421.16;5037107;28;20235;-68
2022/01/28 03:24:08;;;;;;;5.50;2.40;;;;;;;4.95;93.52;97426.75;5035695;28;20206;-68
2022/01/28 03:26:35;;;;;;;2.93;1.90;;;;;;;4.92;93.34;97432.19;5036878;28;20208;-68
2022/01/28 03:29:01;;;;;;;3.03;2.20;;;;;;;4.80;93.33;97431.44;5036815;28;20736;-68
2022/01/28 03:31:28;;;;;;;1.93;1.73;;;;;;;4.92;93.16;97426.13;5036257;28;20197;-68
2022/01/28 03:33:54;;;;;;;2.17;1.50;;;;;;;4.75;94.08;97425.72;5035752;28;20209;-68
2022/01/28 03:36:21;;;;;;;7.13;3.00;;;;;;;4.72;94.16;97425.94;5036838;28;20205;-67
2022/01/28 03:38:48;;;;;;;7.67;3.17;;;;;;;4.77;93.41;97442.94;5036040;28;20662;-68
2022/01/28 03:41:17;;;;;;;5.27;2.23;;;;;;;4.89;93.35;97435.03;5036025;28;20338;-68
2022/01/28 03:43:44;;;;;;;2.27;1.77;;;;;;;4.56;93.58;97439.28;5035845;28;20599;-68
2022/01/28 03:46:10;;;;;;;6.37;3.17;;;;;;;4.57;93.66;97448.78;5036333;28;20224;-68
2022/01/28 03:48:37;;;;;;;11.30;3.20;;;;;;;4.57;93.72;97440.09;5033079;28;20320;-68
2022/01/28 03:51:04;;;;;;;5.50;2.27;;;;;;;4.57;93.67;97447.94;5036433;28;20193;-68
2022/01/28 03:53:30;;;;;;;4.63;2.90;;;;;;;4.58;93.62;97447.84;5035377;28;20669;-68
2022/01/28 03:55:57;;;;;;;1.50;1.40;;;;;;;4.55;93.27;97444.63;5035853;28;20204;-68
2022/01/28 03:58:26;;;;;;;6.30;1.90;;;;;;;5.00;92.33;97434.22;5036188;28;20232;-68
2022/01/28 04:00:53;;;;;;;4.37;2.40;;;;;;;4.84;92.60;97423.28;5036310;28;20713;-68
2022/01/28 04:03:39;;;;;;;2.03;1.60;;;;;;;4.64;92.43;97430.91;5035201;28;20328;-68
2022/01/28 04:11:47;;;;;;;4.53;2.83;;;;;;;4.62;92.40;97444.06;5035823;28;20720;-68
2022/01/28 04:14:16;;;;;;;3.20;1.87;;;;;;;4.78;92.34;97449.00;5035551;28;20201;-69
2022/01/28 04:19:27;;;;;;;4.10;1.83;;;;;;;4.49;92.95;97458.97;5036558;28;20679;-68
2022/01/28 04:21:53;;;;;;;1.33;1.20;;;;;;;4.62;92.92;97458.88;5036661;28;20557;-68
2022/01/28 04:24:20;;;;;;;1.53;1.33;;;;;;;4.53;92.73;97473.44;5036204;28;20225;-68
2022/01/28 04:26:46;;;;;;;3.37;1.97;;;;;;;4.58;92.63;97473.09;5036458;28;20212;-67
2022/01/28 04:29:14;;;;;;;3.10;2.07;;;;;;;4.76;92.58;97475.22;5036909;28;20208;-68
2022/01/28 04:31:43;;;;;;;2.90;2.23;;;;;;;4.72;92.15;97481.59;5037596;28;20930;-68
2022/01/28 04:34:09;;;;;;;8.03;2.27;;;;;;;4.82;91.89;97479.16;5034967;28;20227;-68
2022/01/28 04:36:42;;;;;;;3.10;1.63;;;;;;;4.69;92.36;97488.84;5035256;28;20872;-68
2022/01/28 04:39:15;;;;;;;3.80;2.07;;;;;;;4.62;92.09;97492.81;5035534;28;20962;-69
2022/01/28 04:41:53;;;;;;;3.03;1.60;;;;;;;4.78;91.49;97490.78;5035370;28;20726;-68
2022/01/28 04:44:28;;;;;;;5.40;1.57;;;;;;;4.83;89.73;97507.78;5035239;28;20569;-68
2022/01/28 04:47:01;;;;;;;1.33;1.23;;;;;;;5.04;89.01;97504.44;5035194;28;20804;-68
2022/01/28 04:49:38;;;;;;;2.23;1.63;;;;;;;4.96;89.21;97512.00;5035735;28;20266;-68
2022/01/28 04:52:33;;;;;;;13.93;2.33;;;;;;;4.73;89.37;97506.75;5035454;28;20208;-68
2022/01/28 04:55:08;;;;;;;1.47;1.23;;;;;;;4.89;89.01;97499.50;5035166;28;20288;-68
2022/01/28 04:57:47;;;;;;;6.70;2.07;;;;;;;4.82;89.15;97505.28;5035032;28;20643;-68
2022/01/28 05:00:23;;;;;;;1.03;0.80;;;;;;;4.89;89.05;97508.16;5035548;28;20200;-68
2022/01/28 05:03:06;;;;;;;2.83;1.27;;;;;;;4.67;89.14;97509.84;5035664;28;20204;-67
2022/01/28 05:06:01;;;;;;;4.27;1.17;;;;;;;4.76;87.97;97508.31;5035033;28;20514;-67
2022/01/28 05:11:39;;;;;;;1.20;0.90;;;;;;;4.82;88.02;97505.28;5027223;28;20193;-67
2022/01/28 05:14:43;;;;;;;2.87;1.57;;;;;;;4.85;87.31;97509.31;5038193;28;20751;-67
2022/01/28 05:25:48;;;;;;;1.37;1.10;;;;;;;4.74;87.86;97510.22;5038649;28;20220;-67
2022/01/28 05:28:18;;;;;;;2.37;0.87;;;;;;;4.82;87.56;97516.53;5038845;28;20217;-67
2022/01/28 05:30:45;;;;;;;1.17;0.97;;;;;;;4.78;88.14;97514.28;5038791;28;20201;-67
2022/01/28 05:33:12;;;;;;;2.10;1.23;;;;;;;5.03;87.64;97517.59;5038176;28;20208;-67
2022/01/28 05:35:39;;;;;;;1.17;1.10;;;;;;;4.80;87.91;97531.50;5038381;28;20213;-67
2022/01/28 05:38:05;;;;;;;0.37;0.37;;;;;;;4.59;87.81;97537.44;5038714;28;20620;-67
2022/01/28 05:40:32;;;;;;;1.80;1.13;;;;;;;4.65;87.51;97531.78;5038995;28;20491;-67
2022/01/28 05:42:59;;;;;;;1.10;0.80;;;;;;;4.83;86.77;97529.47;5038075;28;20227;-67
2022/01/28 05:45:25;;;;;;;5.97;2.93;;;;;;;4.80;86.55;97535.88;5038633;28;20208;-67
2022/01/28 05:47:52;;;;;;;7.83;1.87;;;;;;;4.74;85.86;97538.94;5038091;28;20560;-67
2022/01/28 05:50:20;;;;;;;7.63;3.07;;;;;;;4.77;86.05;97549.16;5038474;28;20193;-68
2022/01/28 05:52:46;;;;;;;6.57;2.63;;;;;;;4.78;85.24;97556.06;5037472;28;20201;-67
2022/01/28 05:55:12;;;;;;;4.47;3.07;;;;;;;4.67;85.70;97571.66;5038780;28;20209;-67
2022/01/28 05:57:39;;;;;;;6.40;2.93;;;;;;;4.62;85.64;97574.59;5037936;28;20232;-67
2022/01/28 06:00:07;;;;;;;1.83;1.17;;;;;;;4.74;85.00;97572.88;5038296;28;20201;-67
2022/01/28 06:02:33;;;;;;;3.27;0.97;;;;;;;4.66;84.78;97564.75;5037824;28;20255;-67
2022/01/28 06:05:00;;;;;;;1.70;0.70;;;;;;;4.69;84.29;97569.78;5038714;28;20738;-67
2022/01/28 06:07:27;;;;;;;5.77;2.00;;;;;;;4.79;84.34;97568.19;5037855;28;20224;-67
2022/01/28 06:09:54;;;;;;;1.00;1.00;;;;;;;4.59;84.79;97572.19;5038272;28;20208;-68
2022/01/28 06:12:21;;;;;;;4.37;1.77;;;;;;;4.72;83.93;97567.75;5037624;28;20220;-67
2022/01/28 06:14:47;;;;;;;1.43;1.33;;;;;;;4.59;84.01;97587.03;5037820;28;20689;-67
2022/01/28 06:17:14;;;;;;;4.13;1.90;;;;;;;4.62;84.42;97590.25;5038662;28;21183;-67
2022/01/28 06:19:40;;;;;;;2.47;2.03;;;;;;;4.52;85.11;97589.22;5038766;28;20682;-66
2022/01/28 06:22:07;;;;;;;2.10;1.43;;;;;;;4.55;84.70;97594.22;5037963;28;20221;-66
2022/01/28 06:24:35;;;;;;;1.30;1.20;;;;;;;4.70;84.54;97592.31;5038327;28;20204;-67
2022/01/28 06:27:01;;;;;;;6.80;1.30;;;;;;;4.50;84.29;97596.31;5039510;28;20208;-67
2022/01/28 06:29:28;;;;;;;3.10;1.50;;;;;;;4.50;84.56;97611.16;5038045;28;20213;-67
2022/01/28 06:31:54;;;;;;;2.47;1.43;;;;;;;4.42;84.29;97605.66;5037903;28;20205;-68
2022/01/28 06:34:21;;;;;;;1.07;0.97;;;;;;;4.42;84.44;97616.09;5037985;28;20292;-68
2022/01/28 06:36:47;;;;;;;1.43;0.97;;;;;;;4.29;84.43;97612.66;5038156;28;20567;-68
2022/01/28 06:39:14;;;;;;;1.13;0.83;;;;;;;4.26;84.35;97623.28;5037782;28;20204;-68
2022/01/28 06:41:41;;;;;;;3.93;1.30;;;;;;;4.36;84.56;97642.59;5038512;28;20236;-68
2022/01/28 06:44:10;;;;;;;0.70;0.70;;;;;;;4.17;84.16;97644.78;5037570;28;20209;-67
2022/01/28 06:46:37;;;;;;;2.10;1.27;;;;;;;4.28;83.83;97642.28;5038139;28;20201;-67
2022/01/28 06:49:03;;;;;;;1.87;1.63;;;;;;;4.29;84.16;97634.34;5037711;28;20235;-68
2022/01/28 06:51:32;;;;;;;0.70;0.50;;;;;;;4.21;83.80;97641.03;5038215;28;20208;-68
2022/01/28 06:53:58;;;;;;;2.43;0.70;;;;;;;4.37;84.13;97642.50;5036975;28;20237;-68
2022/01/28 06:56:25;;;;;;;0.77;0.77;;;;;;;4.35;84.30;97643.53;5038302;28;20209;-68
2022/01/28 06:58:52;;;;;;;5.80;2.07;;;;;;;4.49;83.68;97644.28;5037753;28;20220;-68
2022/01/28 07:01:19;;;;;;;7.23;2.33;;;;;;;4.46;83.52;97644.47;5037570;28;20207;-67
2022/01/28 07:03:45;;;;;;;2.43;1.17;;;;;;;4.57;83.10;97648.94;5036838;28;20213;-67
2022/01/28 07:06:13;;;;;;;1.20;1.13;;;;;;;4.48;84.15;97655.63;5037869;28;20211;-68
2022/01/28 07:08:39;;;;;;;5.20;1.03;;;;;;;4.48;83.73;97670.44;5037463;28;20302;-68
2022/01/28 07:11:06;;;;;;;0.60;0.60;;;;;;;4.36;83.52;97673.91;5037571;28;20209;-68
2022/01/28 07:13:32;;;;;;;1.73;1.43;;;;;;;4.62;83.08;97667.72;5037084;28;20205;-68
2022/01/28 07:16:00;;;;;;;8.03;1.70;;;;;;;4.63;83.20;97679.84;5037533;28;20208;-67
2022/01/28 07:18:27;;;;;;;2.30;1.00;;;;;;;4.49;83.02;97677.34;5037006;28;20221;-68
2022/01/28 07:20:53;;;;;;;2.37;1.30;;;;;;;4.46;83.15;97678.38;5037555;28;20213;-68
2022/01/28 07:23:20;;;;;;;3.67;1.73;;;;;;;4.35;83.50;97680.06;5036100;28;20250;-68
2022/01/28 07:25:46;;;;;;;3.87;1.60;;;;;;;4.42;83.30;97678.72;5037627;28;20202;-68
2022/01/28 07:28:13;;;;;;;2.20;0.87;;;;;;;4.46;83.12;97674.97;5037727;28;20225;-67
2022/01/28 07:30:40;;;;;;;1.13;0.80;;;;;;;4.65;82.75;97680.59;5036112;28;20208;-68
2022/01/28 07:33:10;;;;;;;0.87;0.80;;;;;;;4.70;82.67;97689.75;5036823;28;20225;-68
2022/01/28 07:35:36;;;;;;;1.07;0.97;;;;;;;4.52;82.76;97671.91;5037591;28;20258;-67
2022/01/28 07:38:04;;;;;;;2.50;1.00;;;;;;;4.57;83.06;97675.03;5037018;28;20234;-68
2022/01/28 07:40:30;;;;;;;1.80;1.40;;;;;;;4.50;82.50;97666.78;5036671;28;20205;-68
2022/01/28 07:42:56;;;;;;;0.57;0.57;;;;;;;4.44;82.24;97669.00;5036963;28;20221;-68
2022/01/28 07:45:24;;;;;;;0.50;0.50;;;;;;;4.37;82.38;97680.81;5037610;28;20208;-67
2022/01/28 07:47:51;;;;;;;1.37;1.13;;;;;;;4.56;82.12;97689.06;5035989;28;20217;-68
2022/01/28 07:50:19;;;;;;;3.40;1.10;;;;;;;4.61;81.81;97690.41;5036549;28;20201;-68
2022/01/28 07:52:46;;;;;;;1.23;1.00;;;;;;;4.79;81.14;97693.53;5036854;28;20211;-68
2022/01/28 07:55:13;;;;;;;0.67;0.60;;;;;;;4.75;81.13;97685.06;5037006;28;20788;-68
2022/01/28 07:57:41;;;;;;;0.90;0.67;;;;;;;4.83;81.18;97687.97;5036759;28;20306;-68
2022/01/28 08:00:10;;;;;;;1.30;0.90;;;;;;;4.68;81.58;97688.19;5036659;28;20209;-68
2022/01/28 08:02:37;;;;;;;1.03;0.50;;;;;;;4.87;80.69;97708.53;5035952;28;20221;-68
2022/01/28 08:05:04;;;;;;;1.53;1.30;;;;;;;4.84;81.09;97711.34;5036994;28;20208;-67
2022/01/28 08:07:32;;;;;;;1.10;0.93;;;;;;;4.93;80.32;97704.66;5036905;28;20235;-68
2022/01/28 08:09:58;;;;;;;2.83;1.27;;;;;;;4.84;80.69;97713.97;5036692;28;20197;-68
2022/01/28 08:12:24;;;;;;;3.77;1.87;;;;;;;4.75;80.64;97726.84;5036579;28;20201;-67
2022/01/28 08:14:51;;;;;;;0.63;0.60;;;;;;;4.78;81.15;97737.06;5036890;28;20665;-67
2022/01/28 08:17:17;;;;;;;0.73;0.53;;;;;;;4.90;80.66;97737.06;5036857;28;20225;-67
2022/01/28 08:19:44;;;;;;;0.83;0.70;;;;;;;4.82;80.41;97747.19;5036157;28;20209;-68
2022/01/28 08:22:10;;;;;;;5.57;1.23;;;;;;;5.02;81.05;97762.31;5036190;28;20232;-68
2022/01/28 08:24:38;;;;;;;1.07;0.87;;;;;;;5.26;79.72;97749.31;5036773;28;20201;-67
2022/01/28 08:27:05;;;;;;;1.03;0.80;;;;;;;5.22;79.52;97743.47;5036326;28;20204;-67
2022/01/28 08:29:32;;;;;;;1.47;0.77;;;;;;;5.24;80.10;97745.97;5036621;28;20578;-67
2022/01/28 08:31:58;;;;;;;0.57;0.37;;;;;;;5.23;79.30;97739.91;5036337;28;20638;-66
2022/01/28 08:34:25;;;;;;;1.40;1.30;;;;;;;5.40;79.68;97750.00;5035709;28;20206;-68
2022/01/28 08:36:51;;;;;;;1.70;1.53;;;;;;;5.59;79.18;97742.53;5036361;28;20208;-67
2022/01/28 08:39:18;;;;;;;0.77;0.77;;;;;;;5.50;78.38;97732.72;5036845;28;20201;-67
2022/01/28 08:41:45;;;;;;;0.73;0.73;;;;;;;5.65;77.56;97727.22;5037800;28;20359;-67
2022/01/28 08:44:12;;;;;;;0.40;0.40;;;;;;;5.49;77.86;97736.28;5039947;28;20224;-68
2022/01/28 08:46:38;;;;;;;6.53;0.70;;;;;;;5.43;77.04;97736.72;5040082;28;20291;-67
2022/01/28 08:49:05;;;;;;;1.07;0.80;;;;;;;5.36;77.32;97743.34;5039924;28;20242;-67
2022/01/28 08:51:31;;;;;;;0.80;0.70;;;;;;;5.26;76.99;97755.38;5040570;28;20212;-66
2022/01/28 08:53:58;;;;;;;1.83;1.43;;;;;;;5.22;77.62;97753.94;5039834;28;20208;-67
2022/01/28 08:56:24;;;;;;;0.80;0.67;;;;;;;5.25;76.97;97769.38;5039903;28;20205;-66
2022/01/28 08:58:52;;;;;;;0.50;0.50;;;;;;;5.50;77.04;97759.69;5040572;28;20228;-67
2022/01/28 09:01:19;;;;;;;0.70;0.70;;;;;;;5.19;77.55;97772.41;5040505;28;20227;-67
2022/01/28 09:03:45;;;;;;;1.03;0.93;;;;;;;5.36;77.42;97777.31;5039063;28;20225;-67
2022/01/28 09:06:12;;;;;;;1.87;0.77;;;;;;;5.52;76.48;97768.28;5040138;28;21218;-68
2022/01/28 09:08:40;;;;;;;0.67;0.50;;;;;;;5.27;74.75;97767.50;5040474;28;20225;-67
2022/01/28 09:11:31;;;;;;;2.23;0.90;;;;;;;5.45;75.74;97761.78;5039744;28;20292;-68
2022/01/28 09:13:59;;;;;;;4.03;1.97;;;;;;;5.58;74.25;97767.00;5039500;28;21034;-67
2022/01/28 09:16:25;;;;;;;5.80;1.80;;;;;;;5.57;74.86;97762.69;5039870;28;20206;-67
2022/01/28 09:18:52;;;;;;;0.80;0.80;;;;;;;5.55;73.90;97764.59;5038520;28;20221;-67
2022/01/28 09:21:20;;;;;;;1.73;1.27;;;;;;;5.75;73.21;97759.63;5039909;28;20232;-66
2022/01/28 09:23:47;;;;;;;2.13;1.17;;;;;;;5.67;72.87;97763.72;5039107;28;20233;-67
2022/01/28 09:26:14;;;;;;;10.53;2.50;;;;;;;5.55;72.59;97764.59;5039571;28;20247;-67
2022/01/28 09:28:40;;;;;;;2.17;1.07;;;;;;;5.65;73.24;97747.28;5039995;28;20221;-67
2022/01/28 09:31:08;;;;;;;0.30;0.30;;;;;;;5.62;72.77;97771.06;5040173;28;20210;-67
2022/01/28 09:33:37;;;;;;;0.87;0.70;;;;;;;5.59;73.22;97763.44;5038673;28;20685;-68
2022/01/28 09:36:04;;;;;;;0.50;0.50;;;;;;;5.48;72.87;97774.63;5039733;28;20278;-67
2022/01/28 09:38:31;;;;;;;2.33;0.73;;;;;;;5.64;73.09;97774.41;5039701;28;20236;-66
2022/01/28 09:41:00;;;;;;;3.23;0.90;;;;;;;5.63;72.36;97776.16;5039142;28;20560;-67
2022/01/28 09:43:26;;;;;;;0.60;0.60;;;;;;;5.91;72.93;97767.22;5038465;28;20225;-67
2022/01/28 09:45:53;;;;;;;2.20;0.87;;;;;;;5.84;72.17;97774.69;5039532;28;20673;-67
2022/01/28 09:48:22;;;;;;;0.90;0.63;;;;;;;6.04;72.09;97781.06;5040933;28;20594;-69
2022/01/28 09:50:49;;;;;;;2.53;1.20;;;;;;;5.87;72.68;97778.81;5040960;28;20667;-68
2022/01/28 09:53:17;;;;;;;0.67;0.67;;;;;;;5.87;73.66;97784.91;5039651;28;20243;-68
2022/01/28 09:55:45;;;;;;;0.40;0.40;;;;;;;5.72;71.91;97785.16;5040040;28;20229;-68
2022/01/28 09:58:12;;;;;;;0.50;0.50;;;;;;;5.79;72.48;97783.78;5041513;28;20237;-67
2022/01/28 10:00:39;;;;;;;0.60;0.60;;;;;;;5.65;71.68;97781.28;5040920;28;20223;-68
2022/01/28 10:03:08;;;;;;;1.47;0.90;;;;;;;5.74;71.68;97788.47;5040021;28;20229;-69
2022/01/28 10:05:38;;;;;;;1.23;0.77;;;;;;;5.91;71.13;97793.38;5039271;28;21110;-67
2022/01/28 10:08:08;;;;;;;1.47;0.50;;;;;;;5.86;71.15;97787.63;5041027;28;20237;-68
2022/01/28 10:10:52;;;;;;;1.13;0.87;;;;;;;5.82;70.58;97786.19;5040215;28;20209;-68
2022/01/28 10:13:26;;;;;;;3.20;1.47;;;;;;;5.68;71.47;97788.94;5040546;28;20208;-68
2022/01/28 10:15:59;;;;;;;0.70;0.70;;;;;;;5.82;72.40;97786.19;5039921;28;20201;-69
2022/01/28 10:18:45;;;;;;;4.37;2.20;;;;;;;5.86;72.44;97792.88;5039891;28;20229;-68
2022/01/28 10:21:19;;;;;;;0.83;0.77;;;;;;;5.57;72.72;97789.66;5033161;28;20355;-67
2022/01/28 10:23:56;;;;;;;1.23;0.80;;;;;;;5.74;73.87;97791.94;5039438;28;20721;-67
2022/01/28 10:26:28;;;;;;;2.27;1.23;;;;;;;5.88;73.64;97781.34;5041973;28;20209;-67
2022/01/28 10:28:55;;;;;;;0.60;0.60;;;;;;;5.73;73.07;97781.59;5041203;28;20228;-67
2022/01/28 10:31:21;;;;;;;1.27;1.10;;;;;;;5.57;72.30;97791.47;5040507;28;20232;-68
2022/01/28 10:33:47;;;;;;;6.90;1.50;;;;;;;5.51;72.31;97776.19;5040265;28;20197;-68
2022/01/28 10:36:25;;;;;;;1.70;1.17;;;;;;;5.96;71.97;97772.91;5040431;28;20209;-67
2022/01/28 10:38:57;;;;;;;10.70;3.47;;;;;;;6.01;72.65;97776.03;5039817;28;20217;-68
2022/01/28 10:41:25;;;;;;;0.90;0.90;;;;;;;6.14;72.01;97788.94;5039716;28;20259;-68
2022/01/28 10:43:56;;;;;;;11.10;0.93;;;;;;;6.18;72.84;97779.91;5039602;28;20221;-67
2022/01/28 10:46:25;;;;;;;0.73;0.73;;;;;;;6.51;70.94;97766.94;5039141;28;20216;-69
2022/01/28 10:48:54;;;;;;;2.63;1.37;;;;;;;6.41;72.09;97770.38;5039410;28;20224;-67
2022/01/28 10:51:22;;;;;;;1.90;1.10;;;;;;;6.40;71.57;97766.94;5039213;28;20213;-67
2022/01/28 10:54:07;;;;;;;0.97;0.90;;;;;;;6.47;71.16;97756.84;5038003;28;20199;-67
2022/01/28 10:56:47;;;;;;;0.70;0.60;;;;;;;6.40;70.76;97769.56;5039097;28;20278;-68
2022/01/28 10:59:16;;;;;;;3.03;1.73;;;;;;;6.18;72.01;97766.84;5040018;28;20255;-67
2022/01/28 11:01:43;;;;;;;1.67;1.47;;;;;;;6.13;72.20;97753.25;5039769;28;20233;-68
2022/01/28 11:04:11;;;;;;;1.80;0.90;;;;;;;6.21;71.29;97764.00;5038368;28;20651;-68
2022/01/28 11:06:38;;;;;;;2.57;1.20;;;;;;;6.30;71.85;97763.31;5039048;28;20773;-69
2022/01/28 11:09:06;;;;;;;11.03;1.03;;;;;;;6.43;70.16;97740.50;5040252;28;20220;-69
2022/01/28 11:11:32;;;;;;;1.93;0.97;;;;;;;6.44;70.46;97752.66;5039298;28;20213;-68
2022/01/28 11:13:59;;;;;;;0.60;0.60;;;;;;;6.37;69.55;97740.97;5038715;28;20228;-68
2022/01/28 11:16:26;;;;;;;1.83;1.30;;;;;;;6.48;70.20;97743.63;5040145;28;20201;-69
2022/01/28 11:18:54;;;;;;;4.87;1.30;;;;;;;6.58;70.06;97746.34;5039376;28;20715;-68
2022/01/28 11:21:30;;;;;;;1.77;1.27;;;;;;;6.58;69.41;97752.44;5038833;28;20279;-70
2022/01/28 11:24:06;;;;;;;0.50;0.40;;;;;;;6.46;68.64;97735.03;5037536;28;20220;-68
2022/01/28 11:26:45;;;;;;;0.93;0.90;;;;;;;6.55;69.59;97751.84;5039235;28;20212;-67
2022/01/28 11:29:13;;;;;;;0.50;0.47;;;;;;;6.60;69.72;97736.63;5038448;28;20236;-68
2022/01/28 11:31:42;;;;;;;1.17;0.70;;;;;;;6.74;68.88;97747.69;5038897;28;21392;-68
2022/01/28 11:34:16;;;;;;;1.27;0.70;;;;;;;6.66;68.84;97750.06;5038433;28;20197;-69
2022/01/28 11:36:42;;;;;;;2.00;0.40;;;;;;;6.22;68.98;97764.84;5038797;28;20209;-67
2022/01/28 11:39:21;;;;;;;0.97;0.70;;;;;;;6.30;68.63;97762.47;5041540;28;20232;-67
2022/01/28 11:42:02;;;;;;;0.83;0.60;;;;;;;6.20;68.43;97767.56;5040749;28;20201;-67
2022/01/28 11:44:55;;;;;;;0.30;0.30;;;;;;;6.12;69.36;97759.44;5039855;28;20225;-68
2022/01/28 11:47:24;;;;;;;1.17;0.70;;;;;;;5.95;67.99;97766.88;5038808;28;20238;-68
2022/01/28 11:49:56;;;;;;;0.63;0.63;;;;;;;6.18;68.49;97766.00;5039072;28;20200;-69
2022/01/28 11:52:27;;;;;;;0.53;0.43;;;;;;;6.21;68.87;97758.78;5038407;28;20296;-70
2022/01/28 11:54:54;;;;;;;4.77;0.90;;;;;;;6.05;68.22;97758.22;5039173;28;20197;-69
2022/01/28 11:57:26;;;;;;;1.80;0.63;;;;;;;6.38;68.16;97750.50;5038207;28;20232;-68
2022/01/28 12:00:19;;;;;;;0.43;0.43;;;;;;;6.47;68.67;97751.59;5038537;28;20205;-68
2022/01/28 12:02:48;;;;;;;1.03;0.83;;;;;;;6.46;68.06;97761.22;5037675;28;20205;-68
2022/01/28 12:05:40;;;;;;;1.20;0.50;;;;;;;6.73;67.99;97741.63;5038580;28;20204;-69
2022/01/28 12:08:06;;;;;;;0.40;0.40;;;;;;;6.67;67.87;97742.09;5024550;28;20225;-70
2022/01/28 12:10:40;;;;;;;1.07;0.70;;;;;;;6.88;68.31;97739.63;5037312;28;20209;-68
2022/01/28 12:13:12;;;;;;;0.30;0.30;;;;;;;6.61;66.00;97736.50;5039357;28;20221;-69
2022/01/28 12:16:15;;;;;;;1.00;0.90;;;;;;;7.02;64.99;97734.16;5038440;28;20209;-70
2022/01/28 12:18:54;;;;;;;1.00;0.77;;;;;;;6.68;65.05;97735.91;5034777;28;20807;-68
2022/01/28 12:21:23;;;;;;;0.23;0.23;;;;;;;6.81;65.30;97747.13;5037936;28;20221;-69
2022/01/28 12:23:51;;;;;;;0.50;0.50;;;;;;;6.50;63.98;97748.72;5037657;28;20224;-69
2022/01/28 12:26:19;;;;;;;0.70;0.50;;;;;;;6.57;64.56;97750.78;5039090;28;20684;-68
2022/01/28 12:28:52;;;;;;;0.73;0.63;;;;;;;6.69;65.70;97742.81;5038882;28;20417;-70
2022/01/28 12:31:23;;;;;;;0.63;0.63;;;;;;;6.74;66.14;97742.47;5038035;28;20212;-67
2022/01/28 12:33:51;;;;;;;0.57;0.40;;;;;;;6.73;66.32;97746.03;5036935;28;20205;-68
2022/01/28 12:36:21;;;;;;;0.97;0.60;;;;;;;6.66;65.47;97750.91;5037886;28;20193;-68
2022/01/28 12:39:01;;;;;;;3.23;0.93;;;;;;;6.63;63.88;97745.06;5037995;28;20225;-68
2022/01/28 12:41:30;;;;;;;0.60;0.40;;;;;;;6.85;64.04;97738.06;5038236;28;20553;-67
2022/01/28 12:43:57;;;;;;;0.40;0.40;;;;;;;6.79;63.03;97735.09;5038496;28;20290;-68
2022/01/28 12:46:27;;;;;;;2.07;0.77;;;;;;;6.98;62.78;97730.09;5040118;28;20204;-68
2022/01/28 12:48:58;;;;;;;0.30;0.30;;;;;;;6.89;63.34;97730.81;5037729;28;20756;-68